Terminal Aerodrome Forecast
Issued by NWS

Home | Current Version | Previous Version | Graphics & Text | Print | Product List | Glossary On
Versions: 1 2 3 4 5 6 7 8 9 10 11 12 13 14 15 16 17
000
FTUS43 KMPX 291400 AAA
TAFAXN
TAF AMD
KAXN 291458Z 2915/3012 30008KT P6SM OVC017
     FM291800 26006KT P6SM BKN025
     FM292200 20005KT P6SM SCT035 SCT110
     FM300300 16008KT P6SM VCSH SCT050 BKN080
     FM300800 18007KT P6SM OVC050=

USA.gov is the U.S. government's official web portal to all federal, state and local government web resources and services.